TFM - Tactical Decision Aid (Experimental) INFO Settings
ID: Runway Winds: CIG/VIS Threshold: METAR Board: Map:

KIAD - Washington-Dulles Intl

Updated at: 0250 UTC 27 Aug 2016
Latest TAF at: 2335 UTC 26 Aug 2016

TAF Board

Time0152Z27/03Z27/04Z27/05Z27/06Z27/07Z27/08Z27/09Z27/10Z27/11Z27/12Z27/13Z27/14Z27/15Z
TypeOBSPRVLPRVLPRVLPRVLPRVLPRVLPRVLPRVLPRVLPRVLPRVLPRVLPRVL
VIS10>6>6>6>6>6>6>6>6>6>6>6>6>6
CIG----------------------------
CoverSCTFEWFEWFEWFEWFEWFEWFEWFEWFEWFEWFEWFEWFEW
FltCatVFRVFRVFRVFRVFRVFRVFRVFRVFRVFRVFRVFRVFRVFR
WX----------------------------
WDirVRB3503503503503503503503503503503506060
WSpd04444444444455
WGst----------------------------
TAF
KIAD 262335Z 2700/2806 35004KT P6SM FEW200
  FM271400 06005KT P6SM FEW200
  FM280200 12004KT P6SM SKC


METAR
KIAD 270152Z 00000KT 10SM FEW070 SCT250 26/21 A3008 RMK AO2 SLP182 T02610211

TAF/METAR Board Legend

Potential Impact
  None Marginal Slight Moderate High
Visibility (sm) >5 3≤X≤5 1≤X<3 0.5≤X<1 <0.5
Ceiling (100 ft) >30 10≤X≤30 4≤X<10 2≤X<4 <2
Wind Speed (kt) <10 10≤X<20 20≤X<30 ≥30
Wind Gust (kt) <15 15≤X<25 25≤X<35 ≥35
Weather No Wx Reported VCTS -TS,-FZRA TS,FZRA +TS,+FZRA




Page loaded:  02:50 UTC  |   07:50 PM Pacific  |   08:50 PM Mountain  |   09:50 PM Central  |   10:50 PM Eastern